sensor_id;sensor_type;location;lat;lon;timestamp;pressure;altitude;pressure_sealevel;temperature;humidity
64610;BME280;51019;46.090;6.350;2023-04-24T00:01:49;96032.53;;;8.77;100.00
64610;BME280;51019;46.090;6.350;2023-04-24T00:04:17;96042.91;;;8.96;100.00
64610;BME280;51019;46.090;6.350;2023-04-24T00:06:46;96054.13;;;8.79;100.00
64610;BME280;51019;46.090;6.350;2023-04-24T00:09:15;96044.03;;;8.84;100.00
64610;BME280;51019;46.090;6.350;2023-04-24T00:11:47;96053.25;;;8.88;100.00
64610;BME280;51019;46.090;6.350;2023-04-24T00:14:23;96041.81;;;8.52;100.00
64610;BME280;51019;46.090;6.350;2023-04-24T00:16:52;96044.50;;;8.69;100.00
64610;BME280;51019;46.090;6.350;2023-04-24T00:19:19;96038.88;;;8.74;100.00
64610;BME280;51019;46.090;6.350;2023-04-24T00:21:48;96045.09;;;8.63;100.00
64610;BME280;51019;46.090;6.350;2023-04-24T00:24:16;96026.81;;;8.63;100.00
64610;BME280;51019;46.090;6.350;2023-04-24T00:26:45;96045.78;;;8.65;100.00
64610;BME280;51019;46.090;6.350;2023-04-24T00:29:13;96051.53;;;8.69;100.00
64610;BME280;51019;46.090;6.350;2023-04-24T00:31:41;96049.34;;;8.64;100.00
64610;BME280;51019;46.090;6.350;2023-04-24T00:34:11;96058.84;;;8.65;100.00
64610;BME280;51019;46.090;6.350;2023-04-24T00:36:41;96033.81;;;8.63;100.00
64610;BME280;51019;46.090;6.350;2023-04-24T00:39:08;96027.50;;;8.65;100.00
64610;BME280;51019;46.090;6.350;2023-04-24T00:41:36;96029.41;;;8.63;100.00
64610;BME280;51019;46.090;6.350;2023-04-24T00:44:06;96049.59;;;8.71;100.00
64610;BME280;51019;46.090;6.350;2023-04-24T00:46:34;96042.88;;;8.59;100.00
64610;BME280;51019;46.090;6.350;2023-04-24T00:49:02;96050.72;;;8.68;100.00
64610;BME280;51019;46.090;6.350;2023-04-24T00:51:31;96045.78;;;8.65;100.00
64610;BME280;51019;46.090;6.350;2023-04-24T00:54:00;96029.06;;;8.39;100.00
64610;BME280;51019;46.090;6.350;2023-04-24T00:56:30;96043.56;;;8.61;100.00
64610;BME280;51019;46.090;6.350;2023-04-24T00:58:58;96060.75;;;8.63;100.00
64610;BME280;51019;46.090;6.350;2023-04-24T01:01:28;96040.44;;;8.48;100.00
64610;BME280;51019;46.090;6.350;2023-04-24T01:03:59;96042.75;;;8.60;100.00
64610;BME280;51019;46.090;6.350;2023-04-24T01:06:28;96046.31;;;8.59;100.00
64610;BME280;51019;46.090;6.350;2023-04-24T01:08:57;95994.69;;;8.24;100.00
64610;BME280;51019;46.090;6.350;2023-04-24T01:11:26;96051.28;;;8.62;100.00
64610;BME280;51019;46.090;6.350;2023-04-24T01:13:53;96027.91;;;8.61;100.00
64610;BME280;51019;46.090;6.350;2023-04-24T01:16:21;96046.41;;;8.77;100.00
64610;BME280;51019;46.090;6.350;2023-04-24T01:18:51;96045.59;;;8.77;100.00
64610;BME280;51019;46.090;6.350;2023-04-24T01:21:20;96043.84;;;8.67;100.00
64610;BME280;51019;46.090;6.350;2023-04-24T01:23:50;96045.50;;;8.68;100.00
64610;BME280;51019;46.090;6.350;2023-04-24T01:26:18;96047.25;;;8.78;100.00
64610;BME280;51019;46.090;6.350;2023-04-24T01:28:47;96059.44;;;8.87;100.00
64610;BME280;51019;46.090;6.350;2023-04-24T01:31:15;96047.25;;;8.78;100.00
64610;BME280;51019;46.090;6.350;2023-04-24T01:33:43;96047.94;;;8.70;100.00
64610;BME280;51019;46.090;6.350;2023-04-24T01:36:11;96051.09;;;8.73;100.00
64610;BME280;51019;46.090;6.350;2023-04-24T01:38:39;96054.00;;;8.70;100.00
64610;BME280;51019;46.090;6.350;2023-04-24T01:41:09;96054.84;;;8.61;100.00
64610;BME280;51019;46.090;6.350;2023-04-24T01:43:36;96034.41;;;8.47;100.00
64610;BME280;51019;46.090;6.350;2023-04-24T01:46:05;96051.72;;;8.48;100.00
64610;BME280;51019;46.090;6.350;2023-04-24T01:48:33;96062.44;;;8.55;100.00
64610;BME280;51019;46.090;6.350;2023-04-24T01:51:01;96047.34;;;8.29;100.00
64610;BME280;51019;46.090;6.350;2023-04-24T01:53:29;96007.13;;;7.93;100.00
64610;BME280;51019;46.090;6.350;2023-04-24T01:55:57;96052.69;;;8.47;100.00
64610;BME280;51019;46.090;6.350;2023-04-24T01:58:26;95979.91;;;8.06;100.00
64610;BME280;51019;46.090;6.350;2023-04-24T02:00:56;96047.19;;;8.50;100.00
64610;BME280;51019;46.090;6.350;2023-04-24T02:03:24;96050.22;;;8.46;100.00
64610;BME280;51019;46.090;6.350;2023-04-24T02:05:52;96036.75;;;8.31;100.00
64610;BME280;51019;46.090;6.350;2023-04-24T02:08:19;96055.44;;;8.36;100.00
64610;BME280;51019;46.090;6.350;2023-04-24T02:10:46;96029.09;;;8.20;100.00
64610;BME280;51019;46.090;6.350;2023-04-24T02:13:14;96059.97;;;8.53;100.00
64610;BME280;51019;46.090;6.350;2023-04-24T02:15:45;96057.75;;;8.49;100.00
64610;BME280;51019;46.090;6.350;2023-04-24T02:18:13;96034.84;;;8.43;100.00
64610;BME280;51019;46.090;6.350;2023-04-24T02:20:42;96048.56;;;8.54;100.00
64610;BME280;51019;46.090;6.350;2023-04-24T02:23:09;96051.22;;;8.35;100.00
64610;BME280;51019;46.090;6.350;2023-04-24T02:25:40;96056.94;;;8.48;100.00
64610;BME280;51019;46.090;6.350;2023-04-24T02:28:08;96063.69;;;8.41;100.00
64610;BME280;51019;46.090;6.350;2023-04-24T02:30:36;96075.81;;;8.23;100.00
64610;BME280;51019;46.090;6.350;2023-04-24T02:33:07;96051.75;;;8.38;100.00
64610;BME280;51019;46.090;6.350;2023-04-24T02:35:35;96049.13;;;8.38;100.00
64610;BME280;51019;46.090;6.350;2023-04-24T02:38:03;96063.69;;;8.41;100.00
64610;BME280;51019;46.090;6.350;2023-04-24T02:40:32;96054.75;;;8.24;100.00
64610;BME280;51019;46.090;6.350;2023-04-24T02:43:00;96067.84;;;8.34;100.00
64610;BME280;51019;46.090;6.350;2023-04-24T02:45:27;96069.19;;;8.28;100.00
64610;BME280;51019;46.090;6.350;2023-04-24T02:47:55;96050.34;;;8.25;100.00
64610;BME280;51019;46.090;6.350;2023-04-24T02:50:25;96060.84;;;8.34;100.00
64610;BME280;51019;46.090;6.350;2023-04-24T02:52:53;96054.75;;;8.24;100.00
64610;BME280;51019;46.090;6.350;2023-04-24T02:55:20;96068.63;;;8.25;100.00
64610;BME280;51019;46.090;6.350;2023-04-24T02:57:48;96057.66;;;8.21;100.00
64610;BME280;51019;46.090;6.350;2023-04-24T03:00:16;96067.13;;;8.13;100.00
64610;BME280;51019;46.090;6.350;2023-04-24T03:02:45;96063.03;;;8.00;100.00
64610;BME280;51019;46.090;6.350;2023-04-24T03:05:12;96073.34;;;8.12;100.00
64610;BME280;51019;46.090;6.350;2023-04-24T03:07:42;96078.56;;;8.12;100.00
64610;BME280;51019;46.090;6.350;2023-04-24T03:10:10;96063.72;;;8.12;100.00
64610;BME280;51019;46.090;6.350;2023-04-24T03:12:40;96089.81;;;8.12;100.00
64610;BME280;51019;46.090;6.350;2023-04-24T03:15:10;96066.34;;;8.12;100.00
64610;BME280;51019;46.090;6.350;2023-04-24T03:17:40;96074.84;;;8.24;100.00
64610;BME280;51019;46.090;6.350;2023-04-24T03:20:09;96074.16;;;8.22;100.00
64610;BME280;51019;46.090;6.350;2023-04-24T03:22:39;96078.56;;;8.12;100.00
64610;BME280;51019;46.090;6.350;2023-04-24T03:25:09;96051.19;;;8.16;100.00
64610;BME280;51019;46.090;6.350;2023-04-24T03:27:37;96070.13;;;8.27;100.00
64610;BME280;51019;46.090;6.350;2023-04-24T03:30:06;96090.34;;;8.16;100.00
64610;BME280;51019;46.090;6.350;2023-04-24T03:32:36;96061.91;;;8.03;100.00
64610;BME280;51019;46.090;6.350;2023-04-24T03:35:05;96080.88;;;8.15;100.00
64610;BME280;51019;46.090;6.350;2023-04-24T03:37:33;96064.81;;;8.00;100.00
64610;BME280;51019;46.090;6.350;2023-04-24T03:40:01;96074.56;;;7.98;100.00
64610;BME280;51019;46.090;6.350;2023-04-24T03:42:30;96079.34;;;8.02;100.00
64610;BME280;51019;46.090;6.350;2023-04-24T03:44:58;96053.25;;;8.02;100.00
64610;BME280;51019;46.090;6.350;2023-04-24T03:47:27;96078.56;;;8.12;100.00
64610;BME280;51019;46.090;6.350;2023-04-24T03:49:55;96086.91;;;8.06;100.00
64610;BME280;51019;46.090;6.350;2023-04-24T03:52:24;96090.75;;;8.01;100.00
64610;BME280;51019;46.090;6.350;2023-04-24T03:54:53;96083.22;;;8.08;100.00
64610;BME280;51019;46.090;6.350;2023-04-24T03:57:21;96090.91;;;8.00;100.00
64610;BME280;51019;46.090;6.350;2023-04-24T03:59:51;96052.06;;;7.78;100.00
64610;BME280;51019;46.090;6.350;2023-04-24T04:02:19;96083.63;;;8.03;100.00
64610;BME280;51019;46.090;6.350;2023-04-24T04:04:47;96085.97;;;8.07;100.00
64610;BME280;51019;46.090;6.350;2023-04-24T04:07:15;96082.66;;;8.14;100.00
64610;BME280;51019;46.090;6.350;2023-04-24T04:09:43;96058.09;;;7.97;100.00
64610;BME280;51019;46.090;6.350;2023-04-24T04:12:12;96079.09;;;8.15;100.00
64610;BME280;51019;46.090;6.350;2023-04-24T04:14:39;96097.22;;;8.07;100.00
64610;BME280;51019;46.090;6.350;2023-04-24T04:17:09;96091.44;;;8.03;100.00
64610;BME280;51019;46.090;6.350;2023-04-24T04:19:36;96052.19;;;7.76;100.00
64610;BME280;51019;46.090;6.350;2023-04-24T04:22:06;96078.13;;;7.97;100.00
64610;BME280;51019;46.090;6.350;2023-04-24T04:24:34;96090.22;;;8.17;100.00
64610;BME280;51019;46.090;6.350;2023-04-24T04:27:03;96082.94;;;8.21;100.00
64610;BME280;51019;46.090;6.350;2023-04-24T04:29:31;96096.13;;;8.10;100.00
64610;BME280;51019;46.090;6.350;2023-04-24T04:31:58;96099.72;;;8.09;100.00
64610;BME280;51019;46.090;6.350;2023-04-24T04:34:30;96089.53;;;8.06;100.00
64610;BME280;51019;46.090;6.350;2023-04-24T04:36:58;96092.28;;;8.04;100.00
64610;BME280;51019;46.090;6.350;2023-04-24T04:39:27;96102.31;;;8.09;100.00
64610;BME280;51019;46.090;6.350;2023-04-24T04:41:56;96082.66;;;8.14;100.00
64610;BME280;51019;46.090;6.350;2023-04-24T04:44:24;96101.22;;;8.21;100.00
64610;BME280;51019;46.090;6.350;2023-04-24T04:46:53;96097.22;;;8.17;100.00
64610;BME280;51019;46.090;6.350;2023-04-24T04:49:21;96090.91;;;8.10;100.00
64610;BME280;51019;46.090;6.350;2023-04-24T04:51:52;96109.56;;;8.15;100.00
64610;BME280;51019;46.090;6.350;2023-04-24T04:54:19;96109.44;;;8.16;100.00
64610;BME280;51019;46.090;6.350;2023-04-24T04:56:49;96120.72;;;8.17;100.00
64610;BME280;51019;46.090;6.350;2023-04-24T04:59:17;96126.63;;;8.19;100.00
64610;BME280;51019;46.090;6.350;2023-04-24T05:01:44;96124.97;;;8.18;100.00
64610;BME280;51019;46.090;6.350;2023-04-24T05:04:12;96046.81;;;7.68;100.00
64610;BME280;51019;46.090;6.350;2023-04-24T05:06:40;96132.44;;;8.32;100.00
64610;BME280;51019;46.090;6.350;2023-04-24T05:09:10;96135.69;;;8.24;100.00
64610;BME280;51019;46.090;6.350;2023-04-24T05:11:38;96110.00;;;8.10;100.00
64610;BME280;51019;46.090;6.350;2023-04-24T05:14:06;96137.75;;;8.30;100.00
64610;BME280;51019;46.090;6.350;2023-04-24T05:16:35;96144.06;;;8.28;100.00
64610;BME280;51019;46.090;6.350;2023-04-24T05:19:04;96145.31;;;8.24;100.00
64610;BME280;51019;46.090;6.350;2023-04-24T05:21:31;96131.72;;;8.11;100.00
64610;BME280;51019;46.090;6.350;2023-04-24T05:23:59;96148.34;;;8.29;100.00
64610;BME280;51019;46.090;6.350;2023-04-24T05:26:29;96143.25;;;8.18;100.00
64610;BME280;51019;46.090;6.350;2023-04-24T05:28:56;96149.28;;;8.09;100.00
64610;BME280;51019;46.090;6.350;2023-04-24T05:31:25;96147.50;;;7.99;100.00
64610;BME280;51019;46.090;6.350;2023-04-24T05:33:54;96159.47;;;8.12;100.00
64610;BME280;51019;46.090;6.350;2023-04-24T05:36:22;96150.25;;;7.98;100.00
64610;BME280;51019;46.090;6.350;2023-04-24T05:38:49;96164.25;;;8.16;100.00
64610;BME280;51019;46.090;6.350;2023-04-24T05:41:17;96173.88;;;8.06;100.00
64610;BME280;51019;46.090;6.350;2023-04-24T05:43:46;96181.56;;;7.88;100.00
64610;BME280;51019;46.090;6.350;2023-04-24T05:46:14;96181.00;;;8.04;100.00
64610;BME280;51019;46.090;6.350;2023-04-24T05:48:41;96185.28;;;8.05;100.00
64610;BME280;51019;46.090;6.350;2023-04-24T05:51:09;96178.53;;;7.93;100.00
64610;BME280;51019;46.090;6.350;2023-04-24T05:53:37;96198.88;;;7.99;100.00
64610;BME280;51019;46.090;6.350;2023-04-24T05:56:13;96194.06;;;8.04;100.00
64610;BME280;51019;46.090;6.350;2023-04-24T05:58:41;96200.53;;;8.00;100.00
64610;BME280;51019;46.090;6.350;2023-04-24T06:01:10;96189.13;;;8.01;100.00
64610;BME280;51019;46.090;6.350;2023-04-24T06:03:41;96203.53;;;8.05;100.00
64610;BME280;51019;46.090;6.350;2023-04-24T06:06:08;96202.03;;;8.02;100.00
64610;BME280;51019;46.090;6.350;2023-04-24T06:08:37;96180.31;;;7.92;100.00
64610;BME280;51019;46.090;6.350;2023-04-24T06:11:05;96202.56;;;7.96;100.00
64610;BME280;51019;46.090;6.350;2023-04-24T06:13:33;96216.03;;;8.01;100.00
64610;BME280;51019;46.090;6.350;2023-04-24T06:16:01;96214.81;;;8.06;100.00
64610;BME280;51019;46.090;6.350;2023-04-24T06:18:31;96218.13;;;8.08;100.00
64610;BME280;51019;46.090;6.350;2023-04-24T06:20:58;96191.16;;;7.78;100.00
64610;BME280;51019;46.090;6.350;2023-04-24T06:23:26;96211.94;;;8.09;100.00
64610;BME280;51019;46.090;6.350;2023-04-24T06:25:58;96221.41;;;8.10;100.00
64610;BME280;51019;46.090;6.350;2023-04-24T06:28:26;96215.25;;;8.11;100.00
64610;BME280;51019;46.090;6.350;2023-04-24T06:30:53;96213.16;;;8.05;100.00
64610;BME280;51019;46.090;6.350;2023-04-24T06:33:24;96183.03;;;7.81;100.00
64610;BME280;51019;46.090;6.350;2023-04-24T06:35:53;96240.09;;;8.15;100.00
64610;BME280;51019;46.090;6.350;2023-04-24T06:38:21;96238.88;;;8.19;100.00
64610;BME280;51019;46.090;6.350;2023-04-24T06:40:49;96242.88;;;8.23;100.00
64610;BME280;51019;46.090;6.350;2023-04-24T06:43:16;96243.41;;;8.26;100.00
64610;BME280;51019;46.090;6.350;2023-04-24T06:45:45;96246.03;;;8.26;100.00
64610;BME280;51019;46.090;6.350;2023-04-24T06:48:12;96258.69;;;8.21;100.00
64610;BME280;51019;46.090;6.350;2023-04-24T06:50:40;96268.41;;;8.19;100.00
64610;BME280;51019;46.090;6.350;2023-04-24T06:53:11;96257.97;;;8.19;100.00
64610;BME280;51019;46.090;6.350;2023-04-24T06:55:40;96253.03;;;8.26;100.00
64610;BME280;51019;46.090;6.350;2023-04-24T06:58:11;96260.53;;;8.50;100.00
64610;BME280;51019;46.090;6.350;2023-04-24T07:00:38;96254.47;;;8.49;100.00
64610;BME280;51019;46.090;6.350;2023-04-24T07:03:06;96264.78;;;8.70;100.00
64610;BME280;51019;46.090;6.350;2023-04-24T07:05:37;96275.53;;;8.57;100.00
64610;BME280;51019;46.090;6.350;2023-04-24T07:08:07;96272.91;;;8.77;100.00
64610;BME280;51019;46.090;6.350;2023-04-24T07:10:39;96277.31;;;8.86;100.00
64610;BME280;51019;46.090;6.350;2023-04-24T07:13:07;96270.84;;;8.61;100.00
64610;BME280;51019;46.090;6.350;2023-04-24T07:15:36;96283.38;;;8.67;100.00
64610;BME280;51019;46.090;6.350;2023-04-24T07:18:05;96276.63;;;8.64;100.00
64610;BME280;51019;46.090;6.350;2023-04-24T07:20:32;96287.34;;;8.81;100.00
64610;BME280;51019;46.090;6.350;2023-04-24T07:23:02;96285.44;;;9.02;100.00
64610;BME280;51019;46.090;6.350;2023-04-24T07:25:30;96304.78;;;9.28;100.00
64610;BME280;51019;46.090;6.350;2023-04-24T07:28:00;96294.34;;;9.09;100.00
64610;BME280;51019;46.090;6.350;2023-04-24T07:30:28;96253.38;;;8.81;100.00
64610;BME280;51019;46.090;6.350;2023-04-24T07:32:56;96309.66;;;9.14;100.00
64610;BME280;51019;46.090;6.350;2023-04-24T07:35:30;96313.31;;;9.30;100.00
64610;BME280;51019;46.090;6.350;2023-04-24T07:37:57;96286.13;;;9.14;100.00
64610;BME280;51019;46.090;6.350;2023-04-24T07:40:28;96322.31;;;10.11;100.00
64610;BME280;51019;46.090;6.350;2023-04-24T07:42:56;96319.44;;;11.05;100.00
64610;BME280;51019;46.090;6.350;2023-04-24T07:45:26;96311.63;;;11.13;100.00
64610;BME280;51019;46.090;6.350;2023-04-24T07:47:53;96309.28;;;10.57;100.00
64610;BME280;51019;46.090;6.350;2023-04-24T07:50:23;96312.19;;;10.53;100.00
64610;BME280;51019;46.090;6.350;2023-04-24T07:52:51;96319.31;;;10.61;100.00
64610;BME280;51019;46.090;6.350;2023-04-24T07:55:19;96324.16;;;10.83;100.00
64610;BME280;51019;46.090;6.350;2023-04-24T07:57:47;96322.75;;;10.62;100.00
64610;BME280;51019;46.090;6.350;2023-04-24T08:00:16;96332.44;;;10.79;100.00
64610;BME280;51019;46.090;6.350;2023-04-24T08:02:47;96337.03;;;10.95;100.00
64610;BME280;51019;46.090;6.350;2023-04-24T08:05:14;96345.50;;;10.88;100.00
64610;BME280;51019;46.090;6.350;2023-04-24T08:07:42;96349.22;;;10.86;100.00
64610;BME280;51019;46.090;6.350;2023-04-24T08:10:14;96334.03;;;10.89;100.00
64610;BME280;51019;46.090;6.350;2023-04-24T08:12:42;96317.22;;;10.65;100.00
64610;BME280;51019;46.090;6.350;2023-04-24T08:15:10;96354.81;;;10.55;100.00
64610;BME280;51019;46.090;6.350;2023-04-24T08:17:41;96358.88;;;10.40;100.00
64610;BME280;51019;46.090;6.350;2023-04-24T08:20:13;96304.25;;;10.18;100.00
64610;BME280;51019;46.090;6.350;2023-04-24T08:22:41;96362.28;;;10.23;100.00
64610;BME280;51019;46.090;6.350;2023-04-24T08:25:12;96359.41;;;10.44;100.00
64610;BME280;51019;46.090;6.350;2023-04-24T08:27:41;96361.88;;;10.73;100.00
64610;BME280;51019;46.090;6.350;2023-04-24T08:30:10;96333.91;;;10.64;100.00
64610;BME280;51019;46.090;6.350;2023-04-24T08:32:38;96363.38;;;10.75;100.00
64610;BME280;51019;46.090;6.350;2023-04-24T08:35:07;96367.63;;;10.59;100.00
64610;BME280;51019;46.090;6.350;2023-04-24T08:37:37;96349.38;;;10.39;100.00
64610;BME280;51019;46.090;6.350;2023-04-24T08:40:10;96377.50;;;11.10;100.00
64610;BME280;51019;46.090;6.350;2023-04-24T08:42:39;96371.16;;;10.85;100.00
64610;BME280;51019;46.090;6.350;2023-04-24T08:45:08;96360.31;;;10.80;100.00
64610;BME280;51019;46.090;6.350;2023-04-24T08:47:36;96378.06;;;10.86;100.00
64610;BME280;51019;46.090;6.350;2023-04-24T08:50:06;96376.44;;;11.03;100.00
64610;BME280;51019;46.090;6.350;2023-04-24T08:52:39;96374.94;;;11.36;100.00
64610;BME280;51019;46.090;6.350;2023-04-24T08:55:08;96382.13;;;10.98;100.00
64610;BME280;51019;46.090;6.350;2023-04-24T08:57:36;96375.31;;;10.87;100.00
64610;BME280;51019;46.090;6.350;2023-04-24T09:00:08;96377.06;;;11.14;100.00
64610;BME280;51019;46.090;6.350;2023-04-24T09:02:36;96364.44;;;11.00;100.00
64610;BME280;51019;46.090;6.350;2023-04-24T09:05:04;96376.03;;;11.69;100.00
64610;BME280;51019;46.090;6.350;2023-04-24T09:07:32;96374.31;;;11.77;100.00
64610;BME280;51019;46.090;6.350;2023-04-24T09:10:05;96353.31;;;11.16;100.00
64610;BME280;51019;46.090;6.350;2023-04-24T09:12:34;96382.44;;;11.31;100.00
64610;BME280;51019;46.090;6.350;2023-04-24T09:15:02;96369.09;;;11.24;100.00
64610;BME280;51019;46.090;6.350;2023-04-24T09:17:31;96386.34;;;11.26;100.00
64610;BME280;51019;46.090;6.350;2023-04-24T09:19:59;96387.53;;;10.97;100.00
64610;BME280;51019;46.090;6.350;2023-04-24T09:22:29;96392.59;;;10.80;100.00
64610;BME280;51019;46.090;6.350;2023-04-24T09:25:05;96394.34;;;10.89;99.95
64610;BME280;51019;46.090;6.350;2023-04-24T09:27:34;96395.03;;;10.91;98.50
64610;BME280;51019;46.090;6.350;2023-04-24T09:30:03;96388.59;;;11.39;100.00
64610;BME280;51019;46.090;6.350;2023-04-24T09:32:31;96395.19;;;11.43;97.79
64610;BME280;51019;46.090;6.350;2023-04-24T09:35:10;96375.47;;;11.04;91.73
64610;BME280;51019;46.090;6.350;2023-04-24T09:37:38;96390.22;;;11.40;100.00
64610;BME280;51019;46.090;6.350;2023-04-24T09:40:11;96392.34;;;11.98;92.88
64610;BME280;51019;46.090;6.350;2023-04-24T09:42:39;96387.69;;;11.48;96.88
64610;BME280;51019;46.090;6.350;2023-04-24T09:45:10;96393.38;;;11.79;92.02
64610;BME280;51019;46.090;6.350;2023-04-24T09:47:38;96396.41;;;11.75;88.44
64610;BME280;51019;46.090;6.350;2023-04-24T09:50:10;96395.59;;;12.52;88.23
64610;BME280;51019;46.090;6.350;2023-04-24T09:52:43;96385.66;;;13.30;85.02
64610;BME280;51019;46.090;6.350;2023-04-24T09:55:24;96396.06;;;12.89;71.33
64610;BME280;51019;46.090;6.350;2023-04-24T09:57:56;96390.44;;;13.83;69.32
64610;BME280;51019;46.090;6.350;2023-04-24T10:00:25;96387.91;;;14.30;64.16
64610;BME280;51019;46.090;6.350;2023-04-24T10:03:00;96378.63;;;14.34;66.09
64610;BME280;51019;46.090;6.350;2023-04-24T10:05:29;96379.75;;;13.76;61.70
64610;BME280;51019;46.090;6.350;2023-04-24T10:08:01;96354.22;;;13.44;63.90
64610;BME280;51019;46.090;6.350;2023-04-24T10:10:34;96375.91;;;14.20;65.33
64610;BME280;51019;46.090;6.350;2023-04-24T10:13:10;96374.47;;;14.64;63.51
64610;BME280;51019;46.090;6.350;2023-04-24T10:15:39;96365.28;;;14.36;64.26
64610;BME280;51019;46.090;6.350;2023-04-24T10:18:09;96373.50;;;13.53;64.92
64610;BME280;51019;46.090;6.350;2023-04-24T10:20:38;96366.03;;;14.05;61.53
64610;BME280;51019;46.090;6.350;2023-04-24T10:23:09;96363.38;;;14.22;60.79
64610;BME280;51019;46.090;6.350;2023-04-24T10:25:42;96368.03;;;14.59;58.70
64610;BME280;51019;46.090;6.350;2023-04-24T10:28:10;96372.84;;;13.51;62.70
64610;BME280;51019;46.090;6.350;2023-04-24T10:30:43;96340.75;;;13.15;65.60
64610;BME280;51019;46.090;6.350;2023-04-24T10:33:16;96357.97;;;14.62;64.41
64610;BME280;51019;46.090;6.350;2023-04-24T10:35:55;96359.16;;;13.96;61.47
64610;BME280;51019;46.090;6.350;2023-04-24T10:38:25;96350.47;;;14.82;58.22
64610;BME280;51019;46.090;6.350;2023-04-24T10:41:09;96360.88;;;15.06;56.58
64610;BME280;51019;46.090;6.350;2023-04-24T10:43:42;96355.44;;;15.31;57.36
64610;BME280;51019;46.090;6.350;2023-04-24T10:46:10;96354.88;;;15.43;57.17
64610;BME280;51019;46.090;6.350;2023-04-24T10:48:42;96357.91;;;15.78;56.70
64610;BME280;51019;46.090;6.350;2023-04-24T10:51:13;96362.78;;;15.20;53.03
64610;BME280;51019;46.090;6.350;2023-04-24T10:53:42;96354.41;;;16.15;52.51
64610;BME280;51019;46.090;6.350;2023-04-24T10:56:15;96331.75;;;16.86;51.57
64610;BME280;51019;46.090;6.350;2023-04-24T10:58:49;96335.72;;;15.41;53.55
64610;BME280;51019;46.090;6.350;2023-04-24T11:01:24;96339.78;;;15.29;58.08
64610;BME280;51019;46.090;6.350;2023-04-24T11:03:56;96350.97;;;15.54;58.52
64610;BME280;51019;46.090;6.350;2023-04-24T11:06:31;96361.13;;;15.42;57.86
64610;BME280;51019;46.090;6.350;2023-04-24T11:09:08;96353.75;;;13.65;58.69
64610;BME280;51019;46.090;6.350;2023-04-24T11:11:46;96350.28;;;14.36;58.88
64610;BME280;51019;46.090;6.350;2023-04-24T11:14:15;96351.97;;;15.53;56.62
64610;BME280;51019;46.090;6.350;2023-04-24T11:16:44;96279.81;;;15.75;54.14
64610;BME280;51019;46.090;6.350;2023-04-24T11:19:21;96340.03;;;15.19;52.58
64610;BME280;51019;46.090;6.350;2023-04-24T11:21:57;96341.28;;;16.80;52.15
64610;BME280;51019;46.090;6.350;2023-04-24T11:24:32;96339.34;;;16.89;51.48
64610;BME280;51019;46.090;6.350;2023-04-24T11:27:15;96327.13;;;17.30;49.42
64610;BME280;51019;46.090;6.350;2023-04-24T11:29:47;96339.41;;;17.17;47.13
64610;BME280;51019;46.090;6.350;2023-04-24T11:32:24;96337.88;;;15.15;55.24
64610;BME280;51019;46.090;6.350;2023-04-24T11:34:57;96336.78;;;14.47;53.99
64610;BME280;51019;46.090;6.350;2023-04-24T11:37:34;96336.41;;;15.35;52.69
64610;BME280;51019;46.090;6.350;2023-04-24T11:40:04;96327.22;;;15.08;54.17
64610;BME280;51019;46.090;6.350;2023-04-24T11:42:48;96317.38;;;16.29;48.90
64610;BME280;51019;46.090;6.350;2023-04-24T11:45:18;96327.56;;;15.51;53.14
64610;BME280;51019;46.090;6.350;2023-04-24T11:47:47;96316.91;;;16.55;49.96
64610;BME280;51019;46.090;6.350;2023-04-24T11:50:18;96326.16;;;14.95;53.64
64610;BME280;51019;46.090;6.350;2023-04-24T11:52:50;96322.66;;;14.40;54.40
64610;BME280;51019;46.090;6.350;2023-04-24T11:55:24;96328.81;;;15.17;53.90
64610;BME280;51019;46.090;6.350;2023-04-24T11:57:56;96324.16;;;16.32;51.68
64610;BME280;51019;46.090;6.350;2023-04-24T12:00:25;96314.72;;;15.85;52.73
64610;BME280;51019;46.090;6.350;2023-04-24T12:03:06;96313.06;;;17.51;48.79
64610;BME280;51019;46.090;6.350;2023-04-24T12:05:38;96308.03;;;18.46;49.37
64610;BME280;51019;46.090;6.350;2023-04-24T12:08:05;96313.00;;;16.66;51.08
64610;BME280;51019;46.090;6.350;2023-04-24T12:10:34;96290.69;;;16.10;48.88
64610;BME280;51019;46.090;6.350;2023-04-24T12:13:05;96306.31;;;17.27;49.44
64610;BME280;51019;46.090;6.350;2023-04-24T12:15:34;96304.66;;;18.59;44.88
64610;BME280;51019;46.090;6.350;2023-04-24T12:18:04;96308.09;;;17.63;49.97
64610;BME280;51019;46.090;6.350;2023-04-24T12:20:35;96318.75;;;15.58;47.84
64610;BME280;51019;46.090;6.350;2023-04-24T12:23:04;96312.31;;;15.61;48.69
64610;BME280;51019;46.090;6.350;2023-04-24T12:25:33;96312.72;;;15.50;47.96
64610;BME280;51019;46.090;6.350;2023-04-24T12:28:11;96313.13;;;14.93;50.45
64610;BME280;51019;46.090;6.350;2023-04-24T12:30:41;96321.75;;;14.87;50.55
64610;BME280;51019;46.090;6.350;2023-04-24T12:33:12;96293.16;;;14.68;50.94
64610;BME280;51019;46.090;6.350;2023-04-24T12:35:43;96313.81;;;14.64;50.22
64610;BME280;51019;46.090;6.350;2023-04-24T12:38:13;96307.91;;;14.85;49.91
64610;BME280;51019;46.090;6.350;2023-04-24T12:40:44;96312.66;;;14.59;51.48
64610;BME280;51019;46.090;6.350;2023-04-24T12:43:19;96307.78;;;14.47;51.90
64610;BME280;51019;46.090;6.350;2023-04-24T12:45:51;96298.06;;;16.44;46.19
64610;BME280;51019;46.090;6.350;2023-04-24T12:48:19;96288.56;;;14.93;47.85
64610;BME280;51019;46.090;6.350;2023-04-24T12:50:48;96302.41;;;15.17;46.43
64610;BME280;51019;46.090;6.350;2023-04-24T12:53:16;96310.91;;;15.05;46.51
64610;BME280;51019;46.090;6.350;2023-04-24T12:55:45;96304.50;;;15.68;47.01
64610;BME280;51019;46.090;6.350;2023-04-24T12:58:20;96302.88;;;15.21;48.01
64610;BME280;51019;46.090;6.350;2023-04-24T13:00:48;96301.59;;;16.65;48.02
64610;BME280;51019;46.090;6.350;2023-04-24T13:03:16;96302.13;;;15.73;46.74
64610;BME280;51019;46.090;6.350;2023-04-24T13:05:44;96299.88;;;16.94;46.68
64610;BME280;51019;46.090;6.350;2023-04-24T13:08:14;96280.16;;;17.88;45.60
64610;BME280;51019;46.090;6.350;2023-04-24T13:10:45;96293.88;;;15.90;47.85
64610;BME280;51019;46.090;6.350;2023-04-24T13:13:19;96295.78;;;15.21;47.43